KALW/ALW METAR and TAF weather

Enter ICAO airport designator
Station Type Date Time Source
KALW METAR 2019/12/14 05:53 UTC NOAA

KALW 140553Z AUTO 16007KT 10SM OVC065 03/00 A2996 RMK AO2 SLP151 T00280000 10067 20022 56003


Station Type Date Time Source
KALW Decoded METAR 2019/12/14 05:53 UTC NOAA

WALLA WALLA REGIONAL AIRPORT, WA, United States (KALW) 46-06N 118-17W 363M
Dec 14, 2019 - 12:53 AM EST / 2019.12.14 0553 UTC
Wind: from the SSE (160 degrees) at 8 MPH (7 KT):0
Visibility: 10 mile(s):0
Sky conditions: overcast
Temperature: 37.0 F (2.8 C)
Dew Point: 32.0 F (0.0 C)
Relative Humidity: 81%
Pressure (altimeter): 29.96 in. Hg (1014 hPa)
Pressure tendency: 0.01 inches (0.3 hPa) lower than three hours ago
ob: KALW 140553Z AUTO 16007KT 10SM OVC065 03/00 A2996 RMK AO2 SLP151 T00280000 10067 20022 56003
cycle: 6

Station Type Date Time Source
KALW TAF 2019/12/14 06:22 UTC NOAA

TAF KALW 140520Z 1406/1506 VRB05KT 6SM BR BKN050
FM141300 23006KT P6SM -SHRA OVC045
FM150000 24007KT P6SM BKN050

Example: see airport list